Ambridge, Pennsylvania
Current Conditions -  °F | °C
As of 11:51 AM on Friday 24 Oct 2014 (Local Time) from KPIT Reporting Station
Overcast Overcast  
Wind Chill: 53°   Ceiling: 25000
Heat Index: 53°   Visibility: 10mi
Dew Point: 42°   Wind: 9mph
Humidity: 66%   Direction: 300°WNW
Pressure: 30.09"   Gusts: NA
Location:  40.59°N, 80.23°W
Report Text: KPIT 241551Z 30008KT 10SM FEW025 OVC250 12/06 A3009 RMK AO2 SLP199 T01170056
Loading
Personal Weather Stations






























Interactive Weather Map
Tropical Storm Tracking
New forecast layout! Learn more

10-Day Weather Forecast

Advertisements
Track Severe Weather on mobile